createdAt,value
2023-04-24T00:01:27.159Z,99159.15
2023-04-24T00:03:32.531Z,99148.3
2023-04-24T00:05:37.610Z,99138.97
2023-04-24T00:07:42.695Z,99158.48
2023-04-24T00:09:47.699Z,99151.28
2023-04-24T00:11:52.719Z,99157.11
2023-04-24T00:13:57.883Z,99146.66
2023-04-24T00:16:02.914Z,99146.88
2023-04-24T00:18:08.072Z,99146.77
2023-04-24T00:20:13.067Z,99149.42
2023-04-24T00:22:18.151Z,99133.09
2023-04-24T00:24:23.181Z,99134.24
2023-04-24T00:26:28.147Z,99133.55
2023-04-24T00:28:33.142Z,99133.76
2023-04-24T00:30:38.127Z,99122.47
2023-04-24T00:32:43.209Z,99127.09
2023-04-24T00:34:48.283Z,99131.97
2023-04-24T00:36:53.470Z,99127.7
2023-04-24T00:38:58.480Z,99124.09
2023-04-24T00:41:03.464Z,99125.62
2023-04-24T00:43:11.182Z,99137.2
2023-04-24T00:45:16.295Z,99135.48
2023-04-24T00:47:21.346Z,99129.3
2023-04-24T00:49:26.344Z,99121.96
2023-04-24T00:51:31.348Z,99107.5
2023-04-24T00:53:36.379Z,99105.56
2023-04-24T00:55:41.382Z,99105.69
2023-04-24T00:57:46.339Z,99106.53
2023-04-24T00:59:51.321Z,99104.16
2023-04-24T01:01:56.322Z,99103.75
2023-04-24T01:04:02.073Z,99102.51
2023-04-24T01:06:07.562Z,99101.02
2023-04-24T01:08:12.551Z,99104.03
2023-04-24T01:10:17.559Z,99101.3
2023-04-24T01:12:22.731Z,99108.53
2023-04-24T01:14:27.751Z,99095.73
2023-04-24T01:16:32.787Z,99102.27
2023-04-24T01:18:37.846Z,99088.48
2023-04-24T01:20:42.940Z,99094.19
2023-04-24T01:22:47.909Z,99094.13
2023-04-24T01:24:52.909Z,99088.23
2023-04-24T01:26:57.943Z,99090.45
2023-04-24T01:29:03.175Z,99095.67
2023-04-24T01:31:08.245Z,99095.07
2023-04-24T01:33:13.348Z,99088.41
2023-04-24T01:35:18.339Z,99101.48
2023-04-24T01:37:23.448Z,99095.58
2023-04-24T01:39:28.444Z,99104.25
2023-04-24T01:41:33.581Z,99101.14
2023-04-24T01:43:38.634Z,99093.45
2023-04-24T01:45:43.612Z,99091.88
2023-04-24T01:47:48.887Z,99082.47
2023-04-24T01:49:54.001Z,99097.86
2023-04-24T01:51:59.031Z,99088.19
2023-04-24T01:54:04.010Z,99082.8
2023-04-24T01:56:08.990Z,99084.4
2023-04-24T01:58:13.950Z,99084.01
2023-04-24T02:00:18.937Z,99085.45
2023-04-24T02:02:24.285Z,99082.54
2023-04-24T02:05:10.888Z,99084.55
2023-04-24T02:07:15.920Z,99074.22
2023-04-24T02:09:20.883Z,99071.53
2023-04-24T02:11:25.886Z,99077.12
2023-04-24T02:13:30.899Z,99071.03
2023-04-24T02:15:35.864Z,99067.84
2023-04-24T02:17:41.086Z,99066.42
2023-04-24T02:19:46.289Z,99064.84
2023-04-24T02:21:51.362Z,99059.79
2023-04-24T02:23:56.363Z,99056.38
2023-04-24T02:26:01.338Z,99063.28
2023-04-24T02:28:06.345Z,99057.38
2023-04-24T02:30:11.332Z,99051.95
2023-04-24T02:32:16.732Z,99043.63
2023-04-24T02:34:21.938Z,99046.52
2023-04-24T02:36:26.951Z,99041.23
2023-04-24T02:38:31.973Z,99035.5
2023-04-24T02:40:37.019Z,99025.99
2023-04-24T02:42:42.057Z,99022.7
2023-04-24T02:44:47.013Z,99026.33
2023-04-24T02:46:52.111Z,99027.91
2023-04-24T02:48:57.108Z,99025.7
2023-04-24T02:51:02.268Z,99027.1
2023-04-24T02:53:07.364Z,99026.97
2023-04-24T02:55:12.308Z,99019.66
2023-04-24T02:57:17.306Z,99021.31
2023-04-24T02:59:22.300Z,99021.38
2023-04-24T03:01:27.367Z,99017.77
2023-04-24T03:03:32.801Z,99009.61
2023-04-24T03:05:38.184Z,99016.41
2023-04-24T03:07:43.257Z,99012.41
2023-04-24T03:09:48.261Z,99015.77
2023-04-24T03:11:53.291Z,99006.72
2023-04-24T03:13:58.294Z,99019.54
2023-04-24T03:16:03.358Z,99012.42
2023-04-24T03:18:08.529Z,99012.2
2023-04-24T03:20:13.603Z,99016.52
2023-04-24T03:22:18.766Z,99020.24
2023-04-24T03:24:23.756Z,99019.39
2023-04-24T03:26:28.768Z,99014.46
2023-04-24T03:28:33.792Z,99016.2
2023-04-24T03:30:38.844Z,99021.19
2023-04-24T03:32:44.021Z,99014.73
2023-04-24T03:34:49.128Z,99012.06
2023-04-24T03:36:54.068Z,99019.24
2023-04-24T03:38:59.066Z,99030.95
2023-04-24T03:41:04.150Z,99034.35
2023-04-24T03:43:09.232Z,99036.33
2023-04-24T03:45:14.243Z,99032.38
2023-04-24T03:47:19.233Z,99037.21
2023-04-24T03:49:24.296Z,99033.98
2023-04-24T03:51:29.333Z,99038.41
2023-04-24T03:53:34.425Z,99038.8
2023-04-24T03:55:39.414Z,99029.44
2023-04-24T03:57:44.537Z,99039.91
2023-04-24T03:59:49.527Z,99026.84
2023-04-24T04:01:54.678Z,99037.73
2023-04-24T04:04:00.133Z,99040.88
2023-04-24T04:06:05.635Z,99040.2
2023-04-24T04:08:10.692Z,99037.22
2023-04-24T04:10:15.707Z,99034.55
2023-04-24T04:12:20.706Z,99042.5
2023-04-24T04:14:25.694Z,99040.35
2023-04-24T04:16:30.809Z,99049.72
2023-04-24T04:18:35.926Z,99047.73
2023-04-24T04:20:40.950Z,99047.72
2023-04-24T04:22:46.096Z,99050.84
2023-04-24T04:24:51.087Z,99047.27
2023-04-24T04:26:56.106Z,99036.6
2023-04-24T04:29:01.225Z,99038.36
2023-04-24T04:31:06.258Z,99038.41
2023-04-24T04:33:11.367Z,99037.23
2023-04-24T04:35:16.425Z,99036.7
2023-04-24T04:37:21.505Z,99030.73
2023-04-24T04:39:26.484Z,99028.73
2023-04-24T04:41:31.571Z,99037.74
2023-04-24T04:43:36.508Z,99034.03
2023-04-24T04:45:41.552Z,99030.92
2023-04-24T04:47:46.813Z,99020.02
2023-04-24T04:49:51.867Z,99018.29
2023-04-24T04:51:56.914Z,99033.11
2023-04-24T04:54:01.906Z,99038.66
2023-04-24T04:56:06.986Z,99042.13
2023-04-24T04:58:12.017Z,99038.09
2023-04-24T05:00:17.022Z,99034.67
2023-04-24T05:02:22.144Z,99029.46
2023-04-24T05:04:27.747Z,99032.19
2023-04-24T05:06:33.193Z,99029.75
2023-04-24T05:08:38.284Z,99032.77
2023-04-24T05:10:43.348Z,99036.67
2023-04-24T05:12:48.472Z,99031.04
2023-04-24T05:14:53.421Z,99037.13
2023-04-24T05:16:58.642Z,99035.59
2023-04-24T05:19:03.717Z,99034.63
2023-04-24T05:21:08.772Z,99034.77
2023-04-24T05:23:13.790Z,99034.88
2023-04-24T05:25:18.860Z,99027.08
2023-04-24T05:27:23.871Z,99037.81
2023-04-24T05:29:28.873Z,99038.33
2023-04-24T05:31:33.987Z,99038.88
2023-04-24T05:33:39.076Z,99038
2023-04-24T05:35:44.048Z,99037.38
2023-04-24T05:37:49.072Z,99034.45
2023-04-24T05:39:54.063Z,99046.19
2023-04-24T05:41:59.272Z,99050.13
2023-04-24T05:44:04.344Z,99046.13
2023-04-24T05:46:09.471Z,99055.16
2023-04-24T05:48:14.590Z,99046.99
2023-04-24T05:50:19.565Z,99047.98
2023-04-24T05:52:24.652Z,99048.67
2023-04-24T05:54:29.750Z,99035.16
2023-04-24T05:56:34.767Z,99052.27
2023-04-24T05:58:39.785Z,99050.57
2023-04-24T06:00:44.793Z,99050.24
2023-04-24T06:02:50.318Z,99049.02
2023-04-24T06:04:56.198Z,99054.77
2023-04-24T06:07:01.525Z,99064.81
2023-04-24T06:09:06.548Z,99063.98
2023-04-24T06:11:11.513Z,99066.96
2023-04-24T06:13:16.521Z,99066.6
2023-04-24T06:15:21.539Z,99072.52
2023-04-24T06:17:26.727Z,99072.58
2023-04-24T06:19:31.789Z,99065.72
2023-04-24T06:21:36.785Z,99065.92
2023-04-24T06:23:41.767Z,99071.77
2023-04-24T06:25:46.809Z,99070.13
2023-04-24T06:27:51.776Z,99067.89
2023-04-24T06:29:56.850Z,99073.55
2023-04-24T06:32:01.995Z,99068.74
2023-04-24T06:34:07.064Z,99079.23
2023-04-24T06:36:12.640Z,99077.34
2023-04-24T06:38:17.694Z,99070.75
2023-04-24T06:40:22.738Z,99074.58
2023-04-24T06:42:27.712Z,99080.47
2023-04-24T06:44:32.783Z,99074.61
2023-04-24T06:46:39.794Z,99080.17
2023-04-24T06:48:46.246Z,99069.83
2023-04-24T06:50:51.270Z,99074.34
2023-04-24T06:52:56.294Z,99067.95
2023-04-24T06:55:01.427Z,99067.59
2023-04-24T06:57:06.539Z,99074.17
2023-04-24T06:59:11.525Z,99064.59
2023-04-24T07:01:16.663Z,99072.36
2023-04-24T07:03:22.161Z,99068.81
2023-04-24T07:05:27.474Z,99072.09
2023-04-24T07:07:32.505Z,99072.61
2023-04-24T07:09:37.559Z,99072.8
2023-04-24T07:11:42.753Z,99065.53
2023-04-24T07:13:47.766Z,99080.05
2023-04-24T07:15:53.081Z,99079.3
2023-04-24T07:17:58.387Z,99080.09
2023-04-24T07:20:03.472Z,99074.22
2023-04-24T07:22:08.513Z,99076.92
2023-04-24T07:24:13.532Z,99071.04
2023-04-24T07:26:18.579Z,99076.75
2023-04-24T07:28:23.808Z,99069.58
2023-04-24T07:30:28.875Z,99081.02
2023-04-24T07:32:33.907Z,99082.92
2023-04-24T07:34:38.923Z,99081.52
2023-04-24T07:36:43.920Z,99082.06
2023-04-24T07:38:48.921Z,99083.61
2023-04-24T07:40:55.268Z,99085.36
2023-04-24T07:43:00.241Z,99068.64
2023-04-24T07:45:05.450Z,99086.17
2023-04-24T07:47:10.473Z,99088.28
2023-04-24T07:51:23.853Z,99083.91
2023-04-24T07:53:28.979Z,99075.34
2023-04-24T07:55:33.949Z,99084.2
2023-04-24T07:57:38.988Z,99083.88
2023-04-24T07:59:44.533Z,99081.59
2023-04-24T08:01:49.799Z,99083.73
2023-04-24T08:03:55.214Z,99080.16
2023-04-24T08:06:01.172Z,99076.24
2023-04-24T08:08:06.734Z,99079.33
2023-04-24T08:10:11.862Z,99080.58
2023-04-24T08:12:16.932Z,99083.92
2023-04-24T08:14:22.009Z,99082.66
2023-04-24T08:16:27.170Z,99083.19
2023-04-24T08:18:32.314Z,99085.89
2023-04-24T08:20:37.452Z,99085.17
2023-04-24T08:22:42.478Z,99083.02
2023-04-24T08:24:47.483Z,99083.11
2023-04-24T08:26:52.557Z,99092.72
2023-04-24T08:28:57.874Z,99091.97
2023-04-24T08:31:03.172Z,99099.22
2023-04-24T08:33:08.426Z,99096.84
2023-04-24T08:35:13.576Z,99099.16
2023-04-24T08:37:18.642Z,99098.31
2023-04-24T08:39:23.645Z,99107.92
2023-04-24T08:41:28.684Z,99105.97
2023-04-24T08:43:33.730Z,99103.3
2023-04-24T08:45:38.819Z,99108.84
2023-04-24T08:47:44.035Z,99095.72
2023-04-24T08:49:49.244Z,99104.91
2023-04-24T08:51:54.238Z,99101.72
2023-04-24T08:53:59.334Z,99097.94
2023-04-24T08:56:04.357Z,99101.1
2023-04-24T08:58:09.392Z,99100.38
2023-04-24T09:00:14.413Z,99095.06
2023-04-24T09:02:20.046Z,99097.09
2023-04-24T09:04:25.539Z,99090.98
2023-04-24T09:06:31.470Z,99091.83
2023-04-24T09:08:36.518Z,99091.98
2023-04-24T09:10:41.519Z,99093.14
2023-04-24T09:12:46.569Z,99092.73
2023-04-24T09:14:51.662Z,99101.86
2023-04-24T09:16:56.936Z,99096.98
2023-04-24T09:19:02.242Z,99089.54
2023-04-24T09:21:07.302Z,99090.26
2023-04-24T09:23:12.305Z,99076.87
2023-04-24T09:25:17.347Z,99093.45
2023-04-24T09:27:22.416Z,99084.92
2023-04-24T09:29:27.481Z,99080.14
2023-04-24T09:31:32.692Z,99083.63
2023-04-24T09:33:37.879Z,99086.14
2023-04-24T09:35:42.889Z,99080.98
2023-04-24T09:37:47.943Z,99092.34
2023-04-24T09:39:53.002Z,99088.7
2023-04-24T09:41:58.046Z,99088.95
2023-04-24T09:44:03.127Z,99079.45
2023-04-24T09:46:08.442Z,99085.97
2023-04-24T09:48:13.739Z,99087.56
2023-04-24T09:50:22.289Z,99075.32
2023-04-24T09:52:27.807Z,99084.63
2023-04-24T09:54:32.878Z,99073.69
2023-04-24T09:56:37.950Z,99069.96
2023-04-24T09:58:42.939Z,99069.23
2023-04-24T10:00:47.975Z,99076.42
2023-04-24T10:02:53.286Z,99062.66
2023-04-24T10:04:58.842Z,99053.66
2023-04-24T10:07:04.546Z,99062.36
2023-04-24T10:09:09.650Z,99057.5
2023-04-24T10:11:14.696Z,99066.88
2023-04-24T10:13:19.747Z,99065.84
2023-04-24T10:15:24.748Z,99067.19
2023-04-24T10:17:29.761Z,99067.63
2023-04-24T10:19:34.817Z,99067.33
2023-04-24T10:21:39.818Z,99069.92
2023-04-24T10:23:44.864Z,99074.13
2023-04-24T10:25:49.865Z,99069.57
2023-04-24T10:27:54.903Z,99073.08
2023-04-24T10:29:59.937Z,99068.83
2023-04-24T10:32:04.972Z,99061.73
2023-04-24T10:34:09.998Z,99070.33
2023-04-24T10:36:15.096Z,99066.78
2023-04-24T10:38:20.270Z,99066.36
2023-04-24T10:40:25.337Z,99069.72
2023-04-24T10:42:30.356Z,99064.97
2023-04-24T10:44:35.350Z,99065.07
2023-04-24T10:46:40.447Z,99064.34
2023-04-24T10:48:45.527Z,99074.32
2023-04-24T10:50:50.548Z,99073.23
2023-04-24T10:52:55.558Z,99062.56
2023-04-24T10:55:00.925Z,99075.7
2023-04-24T10:57:05.909Z,99079.59
2023-04-24T10:59:10.896Z,99075.53
2023-04-24T11:01:16.097Z,99082.66
2023-04-24T11:03:21.683Z,99076.03
2023-04-24T11:05:26.858Z,99082.47
2023-04-24T11:07:31.870Z,99077.17
2023-04-24T11:09:37.333Z,99072.67
2023-04-24T11:11:42.471Z,99077.2
2023-04-24T11:13:47.598Z,99075.56
2023-04-24T11:15:52.624Z,99078.77
2023-04-24T11:17:57.855Z,99070.04
2023-04-24T11:20:26.510Z,99076.1
2023-04-24T11:22:32.698Z,99074.73
2023-04-24T11:24:37.717Z,99067.48
2023-04-24T11:26:42.768Z,99076.77
2023-04-24T11:28:48.043Z,99077.31
2023-04-24T11:30:53.021Z,99066.8
2023-04-24T11:32:58.156Z,99071.22
2023-04-24T11:35:03.353Z,99079.84
2023-04-24T11:37:08.406Z,99081.24
2023-04-24T11:39:13.428Z,99081.48
2023-04-24T11:41:18.481Z,99083.16
2023-04-24T11:43:23.698Z,99079.2
2023-04-24T11:45:28.730Z,99084.45
2023-04-24T11:47:33.855Z,99082.58
2023-04-24T11:49:39.189Z,99073.36
2023-04-24T11:51:55.171Z,99081.55
2023-04-24T11:54:05.962Z,99078.9
2023-04-24T11:56:10.866Z,99074.53
2023-04-24T11:58:15.838Z,99073.89
2023-04-24T12:00:21.217Z,99070.34
2023-04-24T12:02:26.999Z,99069.59
2023-04-24T12:04:35.807Z,99071.7
2023-04-24T12:06:41.519Z,99061.55
2023-04-24T12:08:46.603Z,99069.43
2023-04-24T12:10:51.636Z,99066.3
2023-04-24T12:12:56.615Z,99065.52
2023-04-24T12:15:02.532Z,99067.71
2023-04-24T12:17:07.635Z,99068.75
2023-04-24T12:19:12.708Z,99066.23
2023-04-24T12:21:19.113Z,99066.06
2023-04-24T12:23:26.818Z,99066.79
2023-04-24T12:25:31.817Z,99071.02
2023-04-24T12:27:37.230Z,99061.31
2023-04-24T12:29:42.248Z,99059.14
2023-04-24T12:31:47.331Z,99053.59
2023-04-24T12:33:52.648Z,99058.39
2023-04-24T12:35:57.823Z,99068.95
2023-04-24T12:38:02.834Z,99054.36
2023-04-24T12:40:08.088Z,99064.21
2023-04-24T12:42:13.332Z,99053.33
2023-04-24T12:44:18.464Z,99057.98
2023-04-24T12:46:24.208Z,99048.84
2023-04-24T12:48:29.573Z,99052.05
2023-04-24T12:50:34.695Z,99062.36
2023-04-24T12:52:39.785Z,99042.31
2023-04-24T12:54:44.963Z,99060.8
2023-04-24T12:56:50.163Z,99026.11
2023-04-24T12:58:55.228Z,99062.58
2023-04-24T13:01:00.334Z,99060.13
2023-04-24T13:03:06.174Z,99059.84
2023-04-24T13:05:11.411Z,99055.27
2023-04-24T13:07:16.701Z,99056.08
2023-04-24T13:09:21.723Z,99059
2023-04-24T13:11:26.801Z,99056.2
2023-04-24T13:13:31.854Z,99050.17
2023-04-24T13:15:37.026Z,99048.66
2023-04-24T13:17:42.434Z,99048.59
2023-04-24T13:19:47.974Z,99039.17
2023-04-24T13:21:53.091Z,99037.64
2023-04-24T13:23:58.169Z,99036.13
2023-04-24T13:26:03.261Z,99035.45
2023-04-24T13:28:08.429Z,99033.85
2023-04-24T13:30:13.495Z,99039.68
2023-04-24T13:32:18.924Z,99040.27
2023-04-24T13:34:24.521Z,99038.77
2023-04-24T13:36:29.834Z,99039.58
2023-04-24T13:38:34.884Z,99038.88
2023-04-24T13:40:39.948Z,99039.17
2023-04-24T13:42:44.935Z,99036.95
2023-04-24T13:44:50.062Z,99035.5
2023-04-24T13:46:55.261Z,99035.43
2023-04-24T13:49:00.411Z,99035.02
2023-04-24T13:51:05.560Z,99036.88
2023-04-24T13:53:10.735Z,99036.43
2023-04-24T13:55:15.744Z,99040.03
2023-04-24T13:57:20.749Z,99046.25
2023-04-24T13:59:25.741Z,99046.91
2023-04-24T14:01:30.851Z,99051.22
2023-04-24T14:03:36.446Z,99057.97
2023-04-24T14:05:41.814Z,99060.59
2023-04-24T14:07:46.833Z,99056.8
2023-04-24T14:09:51.887Z,99057.43
2023-04-24T14:11:56.909Z,99059.77
2023-04-24T14:14:01.944Z,99059.52
2023-04-24T14:16:07.158Z,99057.5
2023-04-24T14:18:12.335Z,99054.88
2023-04-24T14:20:17.514Z,99052.55
2023-04-24T14:22:22.570Z,99058.3
2023-04-24T14:24:27.600Z,99056.28
2023-04-24T14:26:32.642Z,99058.24
2023-04-24T14:28:37.639Z,99055.44
2023-04-24T14:30:42.778Z,99055.28
2023-04-24T14:32:47.863Z,99055.36
2023-04-24T14:34:53.018Z,99060.09
2023-04-24T14:36:57.965Z,99056.86
2023-04-24T14:39:03.120Z,99051.95
2023-04-24T14:41:13.802Z,99051.21
2023-04-24T14:43:19.116Z,99046.27
2023-04-24T14:45:24.442Z,99052.38
2023-04-24T14:47:29.568Z,99053.88
2023-04-24T14:49:34.652Z,99048.72
2023-04-24T14:51:39.638Z,99049.31
2023-04-24T14:53:45.089Z,99056.91
2023-04-24T14:55:50.714Z,99054.63
2023-04-24T14:57:55.707Z,99056.29
2023-04-24T15:00:00.840Z,99058.21
2023-04-24T15:02:18.098Z,99054.65
2023-04-24T15:04:29.115Z,99058.78
2023-04-24T15:06:34.484Z,99056.69
2023-04-24T15:08:39.496Z,99060.67
2023-04-24T15:10:44.578Z,99061.84
2023-04-24T15:12:49.633Z,99060.42
2023-04-24T15:14:54.651Z,99059.27
2023-04-24T15:16:59.896Z,99064.92
2023-04-24T15:19:05.218Z,99063.65
2023-04-24T15:21:10.234Z,99068.95
2023-04-24T15:23:15.281Z,99067.48
2023-04-24T15:25:20.335Z,99066.91
2023-04-24T15:27:25.369Z,99073.59
2023-04-24T15:29:30.423Z,99070.83
2023-04-24T15:31:35.577Z,99071.34
2023-04-24T15:33:40.632Z,99071.03
2023-04-24T15:35:45.695Z,99071.36
2023-04-24T15:37:50.694Z,99065.33
2023-04-24T15:39:56.073Z,99065.82
2023-04-24T15:42:01.163Z,99069.31
2023-04-24T15:44:06.346Z,99071.19
2023-04-24T15:46:11.475Z,99069.27
2023-04-24T15:48:16.598Z,99063.05
2023-04-24T15:50:21.717Z,99063.8
2023-04-24T15:52:26.778Z,99064.09
2023-04-24T15:54:31.808Z,99069.56
2023-04-24T15:56:36.834Z,99067.61
2023-04-24T15:58:41.835Z,99071.31
2023-04-24T16:00:46.849Z,99071.16
2023-04-24T16:02:52.197Z,99070.95
2023-04-24T16:04:58.095Z,99072.27
2023-04-24T16:07:03.514Z,99073.35
2023-04-24T16:09:08.620Z,99072.48
2023-04-24T16:11:13.711Z,99071.31
2023-04-24T16:13:18.735Z,99072.55
2023-04-24T16:15:23.722Z,99072.61
2023-04-24T16:17:28.882Z,99070.61
2023-04-24T16:19:34.219Z,99070.77
2023-04-24T16:21:39.445Z,99077.96
2023-04-24T16:23:44.573Z,99076.13
2023-04-24T16:25:49.567Z,99076.48
2023-04-24T16:27:54.636Z,99079.69
2023-04-24T16:29:59.734Z,99082.89
2023-04-24T16:32:04.782Z,99078.34
2023-04-24T16:34:09.814Z,99074.2
2023-04-24T16:36:14.851Z,99073.84
2023-04-24T16:38:19.935Z,99080.09
2023-04-24T16:40:24.978Z,99080.31
2023-04-24T16:42:30.345Z,99079.26
2023-04-24T16:44:35.585Z,99082.41
2023-04-24T16:46:40.764Z,99077.39
2023-04-24T16:48:45.938Z,99079.39
2023-04-24T16:50:51.422Z,99078.09
2023-04-24T16:52:56.434Z,99074.77
2023-04-24T16:55:01.465Z,99079.44
2023-04-24T16:57:06.474Z,99077.39
2023-04-24T16:59:11.589Z,99079.29
2023-04-24T17:01:16.698Z,99075.83
2023-04-24T17:03:22.429Z,99077.55
2023-04-24T17:05:27.826Z,99081.86
2023-04-24T17:07:32.792Z,99080.31
2023-04-24T17:09:37.798Z,99076.04
2023-04-24T17:11:42.797Z,99077.83
2023-04-24T17:13:48.003Z,99075.58
2023-04-24T17:15:53.000Z,99073.61
2023-04-24T17:17:58.046Z,99071.09
2023-04-24T17:20:22.477Z,99067.87
2023-04-24T17:22:29.662Z,99063.65
2023-04-24T17:24:34.685Z,99059.74
2023-04-24T17:26:39.817Z,99059.72
2023-04-24T17:28:44.926Z,99061.24
2023-04-24T17:30:50.396Z,99067.97
2023-04-24T17:32:55.515Z,99075.8
2023-04-24T17:35:00.619Z,99076.78
2023-04-24T17:37:05.694Z,99086.39
2023-04-24T17:39:10.731Z,99094.41
2023-04-24T17:41:15.727Z,99096.92
2023-04-24T17:43:20.824Z,99096.09
2023-04-24T17:45:25.882Z,99096.83
2023-04-24T17:47:30.924Z,99102.26
2023-04-24T17:49:36.029Z,99107.75
2023-04-24T17:51:41.161Z,99101.27
2023-04-24T17:53:46.156Z,99106.68
2023-04-24T17:55:51.147Z,99102.6
2023-04-24T17:57:56.128Z,99109.98
2023-04-24T18:00:01.152Z,99122.5
2023-04-24T18:02:06.176Z,99133.46
2023-04-24T18:04:11.804Z,99130.41
2023-04-24T18:06:17.260Z,99138.81
2023-04-24T18:08:22.421Z,99139.41
2023-04-24T18:10:27.546Z,99143.78
2023-04-24T18:12:32.544Z,99148.05
2023-04-24T18:14:37.613Z,99152.14
2023-04-24T18:16:42.696Z,99155.57
2023-04-24T18:18:48.209Z,99154.38
2023-04-24T18:20:53.852Z,99150.74
2023-04-24T18:22:59.057Z,99152.28
2023-04-24T18:25:07.244Z,99154.64
2023-04-24T18:27:12.369Z,99157.2
2023-04-24T18:29:17.423Z,99155.13
2023-04-24T18:31:22.574Z,99157.4
2023-04-24T18:33:27.690Z,99156.16
2023-04-24T18:35:32.763Z,99152.28
2023-04-24T18:37:38.087Z,99156.48
2023-04-24T18:39:43.256Z,99151.04
2023-04-24T18:41:48.322Z,99155.31
2023-04-24T18:43:53.361Z,99157.08
2023-04-24T18:45:58.411Z,99160.47
2023-04-24T18:48:03.614Z,99154.84
2023-04-24T18:50:08.777Z,99163.94
2023-04-24T18:52:13.782Z,99165.77
2023-04-24T18:54:18.805Z,99167.97
2023-04-24T18:56:23.789Z,99164.7
2023-04-24T18:58:28.760Z,99169.79
2023-04-24T19:00:33.935Z,99172.23
2023-04-24T19:02:39.242Z,99169.81
2023-04-24T19:04:44.513Z,99176.83
2023-04-24T19:06:49.676Z,99169.07
2023-04-24T19:08:54.982Z,99171.7
2023-04-24T19:11:00.128Z,99164.55
2023-04-24T19:13:05.230Z,99161.17
2023-04-24T19:15:10.229Z,99157.73
2023-04-24T19:17:15.314Z,99149.41
2023-04-24T19:19:20.349Z,99154.7
2023-04-24T19:21:25.401Z,99150.73
2023-04-24T19:23:30.415Z,99152.11
2023-04-24T19:25:35.594Z,99151.23
2023-04-24T19:27:40.590Z,99160.57
2023-04-24T19:29:45.629Z,99159.09
2023-04-24T19:31:50.882Z,99156.61
2023-04-24T19:33:56.053Z,99154.53
2023-04-24T19:36:01.056Z,99158.22
2023-04-24T19:38:06.130Z,99155.98
2023-04-24T19:40:11.130Z,99155.69
2023-04-24T19:42:16.258Z,99153.83
2023-04-24T19:44:25.035Z,99152.98
2023-04-24T19:46:30.110Z,99152.4
2023-04-24T19:48:35.320Z,99150.92
2023-04-24T19:50:40.540Z,99151.72
2023-04-24T19:52:48.204Z,99153.04
2023-04-24T19:54:53.253Z,99149.09
2023-04-24T19:56:58.393Z,99155.14
2023-04-24T19:59:03.494Z,99157.03
2023-04-24T20:01:08.582Z,99160.13
2023-04-24T20:03:33.203Z,99166.22
2023-04-24T20:05:39.028Z,99161.48
2023-04-24T20:07:44.029Z,99164.82
2023-04-24T20:09:49.028Z,99163.16
2023-04-24T20:11:54.006Z,99164.94
2023-04-24T20:13:59.032Z,99163.83
2023-04-24T20:16:04.190Z,99161.92
2023-04-24T20:18:09.551Z,99170.33
2023-04-24T20:20:14.670Z,99171.22
2023-04-24T20:22:19.830Z,99167.86
2023-04-24T20:24:24.957Z,99169.77
2023-04-24T20:26:29.957Z,99173.73
2023-04-24T20:28:35.059Z,99170.3
2023-04-24T20:30:40.071Z,99172.58
2023-04-24T20:32:45.302Z,99171.48
2023-04-24T20:34:50.589Z,99174.83
2023-04-24T20:36:55.632Z,99177.52
2023-04-24T20:39:00.660Z,99173.19
2023-04-24T20:41:05.652Z,99177.98
2023-04-24T20:43:10.631Z,99176.91
2023-04-24T20:45:15.666Z,99179.47
2023-04-24T20:47:20.672Z,99178.87
2023-04-24T20:49:25.825Z,99181.51
2023-04-24T20:51:30.843Z,99178.3
2023-04-24T20:53:35.791Z,99182.59
2023-04-24T20:55:40.952Z,99182.78
2023-04-24T20:57:46.022Z,99186.41
2023-04-24T20:59:51.118Z,99180.25
2023-04-24T21:01:56.213Z,99185.67
2023-04-24T21:04:01.447Z,99186
2023-04-24T21:06:06.620Z,99189.25
2023-04-24T21:08:11.654Z,99192.39
2023-04-24T21:10:16.727Z,99195.75
2023-04-24T21:12:21.911Z,99198.54
2023-04-24T21:14:27.132Z,99199.31
2023-04-24T21:16:32.205Z,99201.14
2023-04-24T21:18:37.591Z,99199.48
2023-04-24T21:20:42.811Z,99198.61
2023-04-24T21:22:47.825Z,99204.72
2023-04-24T21:24:52.867Z,99209.34
2023-04-24T21:26:57.943Z,99209.14
2023-04-24T21:29:03.111Z,99209.72
2023-04-24T21:31:08.152Z,99210.98
2023-04-24T21:33:13.242Z,99216.34
2023-04-24T21:35:18.277Z,99211.78
2023-04-24T21:37:23.420Z,99212.84
2023-04-24T21:39:28.469Z,99214.27
2023-04-24T21:41:33.496Z,99218.99
2023-04-24T21:43:47.307Z,99220.77
2023-04-24T21:45:54.974Z,99220.99
2023-04-24T21:48:00.250Z,99219.59
2023-04-24T21:50:05.470Z,99220.22
2023-04-24T21:52:10.556Z,99222.69
2023-04-24T21:54:15.554Z,99219
2023-04-24T21:56:20.629Z,99218.09
2023-04-24T21:58:25.611Z,99215.61
2023-04-24T22:00:30.744Z,99229.74
2023-04-24T22:02:36.802Z,99229.71
2023-04-24T22:04:42.524Z,99229.6
2023-04-24T22:06:47.905Z,99229.41
2023-04-24T22:08:52.937Z,99235.95
2023-04-24T22:10:58.008Z,99238.96
2023-04-24T22:13:03.020Z,99233.42
2023-04-24T22:15:08.009Z,99234.8
2023-04-24T22:17:13.039Z,99239.41
2023-04-24T22:19:18.106Z,99239.45
2023-04-24T22:21:23.220Z,99237.09
2023-04-24T22:23:28.264Z,99236.48
2023-04-24T22:25:33.539Z,99237.25
2023-04-24T22:27:38.656Z,99240.58
2023-04-24T22:29:43.688Z,99236.81
2023-04-24T22:31:48.800Z,99244.2
2023-04-24T22:33:53.922Z,99238.77
2023-04-24T22:35:58.962Z,99243.41
2023-04-24T22:38:04.082Z,99244.49
2023-04-24T22:40:09.160Z,99244.67
2023-04-24T22:42:14.302Z,99250.86
2023-04-24T22:44:19.357Z,99251.41
2023-04-24T22:46:24.509Z,99255.19
2023-04-24T22:48:29.727Z,99254.33
2023-04-24T22:50:34.885Z,99253.13
2023-04-24T22:52:40.003Z,99252.86
2023-04-24T22:54:45.107Z,99253.82
2023-04-24T22:56:50.107Z,99254.67
2023-04-24T22:58:55.123Z,99256.7
2023-04-24T23:01:00.327Z,99261.84
2023-04-24T23:03:05.849Z,99258.31
2023-04-24T23:05:11.210Z,99265.6
2023-04-24T23:07:16.221Z,99263.28
2023-04-24T23:09:21.315Z,99266.16
2023-04-24T23:11:26.329Z,99267.72
2023-04-24T23:13:31.432Z,99264.88
2023-04-24T23:15:36.420Z,99265.77
2023-04-24T23:17:41.525Z,99263.8
2023-04-24T23:19:46.733Z,99264.48
2023-04-24T23:21:51.845Z,99262.13
2023-04-24T23:23:56.977Z,99264.61
2023-04-24T23:26:02.023Z,99265.73
2023-04-24T23:28:07.190Z,99263.56
2023-04-24T23:30:12.268Z,99268.25
2023-04-24T23:32:17.503Z,99270.81
2023-04-24T23:34:22.809Z,99268.92
2023-04-24T23:36:27.834Z,99266.48
2023-04-24T23:38:49.935Z,99260.3
2023-04-24T23:40:55.626Z,99264.05
2023-04-24T23:43:08.873Z,99261.58
2023-04-24T23:45:14.094Z,99261.25
2023-04-24T23:47:19.099Z,99262.14
2023-04-24T23:49:24.186Z,99267.19
2023-04-24T23:51:29.246Z,99258.2
2023-04-24T23:53:34.326Z,99260.02
2023-04-24T23:55:39.428Z,99256.08
2023-04-24T23:57:44.566Z,99253.58
2023-04-24T23:59:49.658Z,99249.88
